KTYQKFXE

Guest
Details From KTYQ - Indianapolis Executive
To KFXE - Fort Lauderdale Executive
Flight Number -
Tags Generated
Created
Modified
Stats Distance 885 nm / 1,639 km
Max Altitude 0 ft / 0 m
Waypoints 6
Social Downloads 1
Likes 0
Share VATSIM

Download

Looking for another format? Having issues loading an existing format? Contact us
Advertisement - Login to hide

Notes

Generated

Route

KTYQ GATGE COPSO KABEC SECOR KFXE

ID Type Via Altitude Latitude Longitude Leg Dist Tot Dist Heading (true) Name
O KTYQ APT - 0 ft / 0 m 40.03822˚ -86.25153˚ - 0 nm - -
GATGE FIX - 0 ft / 0 m 36.53683˚ -84.48000˚ 226 nm 226 nm 158° / 159° -
COPSO FIX - 0 ft / 0 m 33.25028˚ -82.99172˚ 210 nm 436 nm 159° / 160° -
KABEC FIX - 0 ft / 0 m 29.35636˚ -81.37914˚ 248 nm 684 nm 160° / 161° -
SECOR FIX - 0 ft / 0 m 26.24088˚ -80.18900˚ 197 nm 882 nm 161° / 162° -
O KFXE APT - 0 ft / 0 m 26.19894˚ -80.17387˚ 2 nm 884 nm 162° / 162° Fort Lauderdale Executive

Altitude Profile

Advertisement - Login to hide

Weather


0- 5 10 15 20 25 30 35+ Temperature / ° C

Clouds and Precipitation
Forecast for 2017-12-13 18:00 UTC. Updated 15 minutes ago

Ground ~20,000 ft ~40,000 ft Winds

KTYQ

Details ICAO KTYQ
Name Indianapolis Executive
Region United States
Timezone America/Indiana/Indianapolis (UTC-5.0)
Stats Elevation 922 ft / 281 m (AMSL)
Location 40.030668° -86.251435°
Runways 1
Magnetic Variation 4.709° W

METAR

KTYQ 131335Z AUTO 17009KT 10SM OVC080 M05/M13 A2978 RMK AO2 T10501133

Decode

TAF

Not found

Departure Runways

ID Width Length Bearing (true) Bearing (mag) Surface Threshold Offset Overrun Length
18 100 ft / 30 m 5,510 ft / 1,679 m 179.47° 184.18° Asphalt 0 ft / 0 m 0 ft / 0 m
36 100 ft / 30 m 5,510 ft / 1,679 m 359.47° 4.18° Asphalt 157 ft / 48 m 0 ft / 0 m

KFXE

Details ICAO KFXE (FXE)
Name Fort Lauderdale Executive
Region United States
Timezone America/New_York (UTC-5.0)
Stats Elevation 13 ft / 4 m (AMSL)
Location 26.196981° -80.170441°
Runways 2
Magnetic Variation 6.774° W

METAR

KFXE 131253Z 33008KT 10SM CLR 11/04 A3011 RMK AO2 SLP198 T01110044

Decode

TAF

TAF KFXE 131120Z 1312/1412 31006KT P6SM SKC FM140000 VRB03KT P6SM SKC

Decode

Destination Runways

ID Width Length Bearing (true) Bearing (mag) Surface Threshold Offset Overrun Length
08 100 ft / 30 m 5,992 ft / 1,826 m 83.75° 90.52° Asphalt 0 ft / 0 m 0 ft / 0 m
13 100 ft / 30 m 4,002 ft / 1,220 m 128.95° 135.72° Asphalt 0 ft / 0 m 0 ft / 0 m
26 100 ft / 30 m 5,992 ft / 1,826 m 263.76° 270.53° Asphalt 0 ft / 0 m 0 ft / 0 m
31 100 ft / 30 m 4,002 ft / 1,220 m 308.95° 315.72° Asphalt 0 ft / 0 m 0 ft / 0 m

Approach Navaids

Runway Type Ident Frequency Range Bearing (true) Bearing (mag) Slope Elevation
08 Localiser IFXE 111.10 MHz 18 nm / 33 km 83.76° 90.54° - 9 ft / 3 m (AMSL)
08 Glidescope IFXE 111.10 MHz 10 nm / 19 km 83.76° 90.53° 3.00° 12 ft / 4 m (AMSL)

Popular Alternatives